sensor_id;sensor_type;location;lat;lon;timestamp;P1;durP1;ratioP1;P2;durP2;ratioP2
6282;SDS011;3174;53.486;9.568;2023-10-09T00:02:15;1.90;;;1.20;;
6282;SDS011;3174;53.486;9.568;2023-10-09T00:04:44;1.97;;;1.30;;
6282;SDS011;3174;53.486;9.568;2023-10-09T00:07:12;1.33;;;0.80;;
6282;SDS011;3174;53.486;9.568;2023-10-09T00:09:43;3.90;;;1.40;;
6282;SDS011;3174;53.486;9.568;2023-10-09T00:12:15;1.83;;;1.13;;
6282;SDS011;3174;53.486;9.568;2023-10-09T00:14:50;2.80;;;1.23;;
6282;SDS011;3174;53.486;9.568;2023-10-09T00:17:24;2.97;;;1.27;;
6282;SDS011;3174;53.486;9.568;2023-10-09T00:19:57;2.10;;;1.20;;
6282;SDS011;3174;53.486;9.568;2023-10-09T00:22:34;2.33;;;1.00;;
6282;SDS011;3174;53.486;9.568;2023-10-09T00:25:08;1.93;;;1.40;;
6282;SDS011;3174;53.486;9.568;2023-10-09T00:27:39;1.97;;;1.10;;
6282;SDS011;3174;53.486;9.568;2023-10-09T00:30:10;3.97;;;1.37;;
6282;SDS011;3174;53.486;9.568;2023-10-09T00:32:43;2.53;;;1.17;;
6282;SDS011;3174;53.486;9.568;2023-10-09T00:35:18;1.97;;;1.00;;
6282;SDS011;3174;53.486;9.568;2023-10-09T00:38:13;1.60;;;1.10;;
6282;SDS011;3174;53.486;9.568;2023-10-09T00:40:51;2.13;;;1.10;;
6282;SDS011;3174;53.486;9.568;2023-10-09T00:43:35;1.43;;;1.20;;
6282;SDS011;3174;53.486;9.568;2023-10-09T00:46:04;1.83;;;1.23;;
6282;SDS011;3174;53.486;9.568;2023-10-09T00:48:40;3.50;;;1.00;;
6282;SDS011;3174;53.486;9.568;2023-10-09T00:51:09;2.77;;;1.10;;
6282;SDS011;3174;53.486;9.568;2023-10-09T00:53:46;1.50;;;1.20;;
6282;SDS011;3174;53.486;9.568;2023-10-09T00:56:18;1.20;;;1.10;;
6282;SDS011;3174;53.486;9.568;2023-10-09T00:58:55;1.73;;;1.10;;
6282;SDS011;3174;53.486;9.568;2023-10-09T01:01:33;2.87;;;1.20;;
6282;SDS011;3174;53.486;9.568;2023-10-09T01:04:04;2.37;;;1.17;;
6282;SDS011;3174;53.486;9.568;2023-10-09T01:06:36;2.93;;;1.30;;
6282;SDS011;3174;53.486;9.568;2023-10-09T01:09:12;2.07;;;1.30;;
6282;SDS011;3174;53.486;9.568;2023-10-09T01:11:41;3.57;;;1.33;;
6282;SDS011;3174;53.486;9.568;2023-10-09T01:14:29;1.97;;;1.10;;
6282;SDS011;3174;53.486;9.568;2023-10-09T01:17:02;1.73;;;1.00;;
6282;SDS011;3174;53.486;9.568;2023-10-09T01:19:37;5.00;;;1.10;;
6282;SDS011;3174;53.486;9.568;2023-10-09T01:22:05;2.50;;;1.30;;
6282;SDS011;3174;53.486;9.568;2023-10-09T01:24:41;1.20;;;1.00;;
6282;SDS011;3174;53.486;9.568;2023-10-09T01:27:10;0.87;;;0.80;;
6282;SDS011;3174;53.486;9.568;2023-10-09T01:29:42;1.83;;;1.10;;
6282;SDS011;3174;53.486;9.568;2023-10-09T01:32:13;1.47;;;0.83;;
6282;SDS011;3174;53.486;9.568;2023-10-09T01:34:45;2.30;;;0.80;;
6282;SDS011;3174;53.486;9.568;2023-10-09T01:37:16;3.10;;;1.20;;
6282;SDS011;3174;53.486;9.568;2023-10-09T01:39:51;1.30;;;1.00;;
6282;SDS011;3174;53.486;9.568;2023-10-09T01:42:24;2.17;;;1.30;;
6282;SDS011;3174;53.486;9.568;2023-10-09T01:45:01;3.00;;;1.00;;
6282;SDS011;3174;53.486;9.568;2023-10-09T01:47:37;4.40;;;1.10;;
6282;SDS011;3174;53.486;9.568;2023-10-09T01:50:06;1.30;;;1.03;;
6282;SDS011;3174;53.486;9.568;2023-10-09T01:52:38;1.83;;;1.10;;
6282;SDS011;3174;53.486;9.568;2023-10-09T01:55:07;2.27;;;1.17;;
6282;SDS011;3174;53.486;9.568;2023-10-09T01:57:39;2.63;;;1.10;;
6282;SDS011;3174;53.486;9.568;2023-10-09T02:00:11;4.63;;;1.20;;
6282;SDS011;3174;53.486;9.568;2023-10-09T02:02:49;1.47;;;0.90;;
6282;SDS011;3174;53.486;9.568;2023-10-09T02:05:18;2.40;;;0.90;;
6282;SDS011;3174;53.486;9.568;2023-10-09T02:07:51;2.40;;;1.30;;
6282;SDS011;3174;53.486;9.568;2023-10-09T02:10:21;2.77;;;1.00;;
6282;SDS011;3174;53.486;9.568;2023-10-09T02:12:58;1.37;;;1.00;;
6282;SDS011;3174;53.486;9.568;2023-10-09T02:15:33;1.07;;;0.83;;
6282;SDS011;3174;53.486;9.568;2023-10-09T02:18:13;3.70;;;2.13;;
6282;SDS011;3174;53.486;9.568;2023-10-09T02:20:45;2.80;;;1.00;;
6282;SDS011;3174;53.486;9.568;2023-10-09T02:23:14;3.70;;;1.17;;
6282;SDS011;3174;53.486;9.568;2023-10-09T02:25:45;2.67;;;1.10;;
6282;SDS011;3174;53.486;9.568;2023-10-09T02:28:13;2.13;;;1.10;;
6282;SDS011;3174;53.486;9.568;2023-10-09T02:30:45;1.30;;;0.90;;
6282;SDS011;3174;53.486;9.568;2023-10-09T02:33:15;3.40;;;1.23;;
6282;SDS011;3174;53.486;9.568;2023-10-09T02:35:54;1.60;;;1.07;;
6282;SDS011;3174;53.486;9.568;2023-10-09T02:38:26;1.30;;;0.93;;
6282;SDS011;3174;53.486;9.568;2023-10-09T02:40:54;1.53;;;1.00;;
6282;SDS011;3174;53.486;9.568;2023-10-09T02:43:47;2.00;;;1.07;;
6282;SDS011;3174;53.486;9.568;2023-10-09T02:46:17;1.83;;;1.13;;
6282;SDS011;3174;53.486;9.568;2023-10-09T02:48:47;4.03;;;1.00;;
6282;SDS011;3174;53.486;9.568;2023-10-09T02:51:17;2.77;;;1.20;;
6282;SDS011;3174;53.486;9.568;2023-10-09T02:54:00;2.17;;;1.00;;
6282;SDS011;3174;53.486;9.568;2023-10-09T02:56:46;2.07;;;1.10;;
6282;SDS011;3174;53.486;9.568;2023-10-09T02:59:21;3.93;;;1.17;;
6282;SDS011;3174;53.486;9.568;2023-10-09T03:01:49;1.50;;;0.97;;
6282;SDS011;3174;53.486;9.568;2023-10-09T03:04:19;2.07;;;1.10;;
6282;SDS011;3174;53.486;9.568;2023-10-09T03:06:50;1.20;;;0.80;;
6282;SDS011;3174;53.486;9.568;2023-10-09T03:09:19;1.47;;;1.07;;
6282;SDS011;3174;53.486;9.568;2023-10-09T03:11:55;1.93;;;0.83;;
6282;SDS011;3174;53.486;9.568;2023-10-09T03:14:29;2.83;;;1.13;;
6282;SDS011;3174;53.486;9.568;2023-10-09T03:16:58;1.37;;;0.90;;
6282;SDS011;3174;53.486;9.568;2023-10-09T03:19:26;0.83;;;0.83;;
6282;SDS011;3174;53.486;9.568;2023-10-09T03:21:55;2.70;;;1.10;;
6282;SDS011;3174;53.486;9.568;2023-10-09T03:24:24;3.53;;;0.90;;
6282;SDS011;3174;53.486;9.568;2023-10-09T03:26:55;3.27;;;1.37;;
6282;SDS011;3174;53.486;9.568;2023-10-09T03:29:23;1.10;;;0.73;;
6282;SDS011;3174;53.486;9.568;2023-10-09T03:31:54;3.40;;;1.20;;
6282;SDS011;3174;53.486;9.568;2023-10-09T03:34:23;4.23;;;1.10;;
6282;SDS011;3174;53.486;9.568;2023-10-09T03:36:51;2.70;;;1.30;;
6282;SDS011;3174;53.486;9.568;2023-10-09T03:39:30;2.23;;;1.20;;
6282;SDS011;3174;53.486;9.568;2023-10-09T03:42:06;3.50;;;1.27;;
6282;SDS011;3174;53.486;9.568;2023-10-09T03:44:38;3.63;;;1.27;;
6282;SDS011;3174;53.486;9.568;2023-10-09T03:47:10;2.43;;;1.27;;
6282;SDS011;3174;53.486;9.568;2023-10-09T03:49:38;1.83;;;1.20;;
6282;SDS011;3174;53.486;9.568;2023-10-09T03:52:06;1.87;;;1.20;;
6282;SDS011;3174;53.486;9.568;2023-10-09T03:54:36;1.43;;;1.10;;
6282;SDS011;3174;53.486;9.568;2023-10-09T03:57:04;1.53;;;1.00;;
6282;SDS011;3174;53.486;9.568;2023-10-09T03:59:34;1.80;;;1.20;;
6282;SDS011;3174;53.486;9.568;2023-10-09T04:02:03;2.13;;;1.20;;
6282;SDS011;3174;53.486;9.568;2023-10-09T04:04:31;3.30;;;1.43;;
6282;SDS011;3174;53.486;9.568;2023-10-09T04:07:00;2.77;;;1.10;;
6282;SDS011;3174;53.486;9.568;2023-10-09T04:09:28;2.23;;;1.40;;
6282;SDS011;3174;53.486;9.568;2023-10-09T04:12:07;2.87;;;2.07;;
6282;SDS011;3174;53.486;9.568;2023-10-09T04:14:49;4.77;;;1.30;;
6282;SDS011;3174;53.486;9.568;2023-10-09T04:17:21;1.50;;;0.93;;
6282;SDS011;3174;53.486;9.568;2023-10-09T04:20:02;1.40;;;1.10;;
6282;SDS011;3174;53.486;9.568;2023-10-09T04:22:48;3.10;;;1.10;;
6282;SDS011;3174;53.486;9.568;2023-10-09T04:25:26;4.03;;;1.13;;
6282;SDS011;3174;53.486;9.568;2023-10-09T04:27:58;4.20;;;1.30;;
6282;SDS011;3174;53.486;9.568;2023-10-09T04:30:36;2.70;;;1.27;;
6282;SDS011;3174;53.486;9.568;2023-10-09T04:33:10;1.87;;;1.10;;
6282;SDS011;3174;53.486;9.568;2023-10-09T04:35:55;1.97;;;1.10;;
6282;SDS011;3174;53.486;9.568;2023-10-09T04:38:41;2.60;;;1.30;;
6282;SDS011;3174;53.486;9.568;2023-10-09T04:41:22;3.13;;;1.10;;
6282;SDS011;3174;53.486;9.568;2023-10-09T04:44:00;1.90;;;1.20;;
6282;SDS011;3174;53.486;9.568;2023-10-09T04:46:45;2.50;;;1.30;;
6282;SDS011;3174;53.486;9.568;2023-10-09T04:49:33;2.37;;;1.47;;
6282;SDS011;3174;53.486;9.568;2023-10-09T04:52:16;1.20;;;1.07;;
6282;SDS011;3174;53.486;9.568;2023-10-09T04:55:07;2.27;;;1.20;;
6282;SDS011;3174;53.486;9.568;2023-10-09T04:57:46;2.63;;;1.17;;
6282;SDS011;3174;53.486;9.568;2023-10-09T05:00:29;1.50;;;1.30;;
6282;SDS011;3174;53.486;9.568;2023-10-09T05:03:29;1.97;;;1.20;;
6282;SDS011;3174;53.486;9.568;2023-10-09T05:06:10;4.53;;;1.83;;
6282;SDS011;3174;53.486;9.568;2023-10-09T05:08:47;2.70;;;1.30;;
6282;SDS011;3174;53.486;9.568;2023-10-09T05:11:16;2.17;;;1.40;;
6282;SDS011;3174;53.486;9.568;2023-10-09T05:14:01;4.77;;;1.83;;
6282;SDS011;3174;53.486;9.568;2023-10-09T05:16:47;2.90;;;1.43;;
6282;SDS011;3174;53.486;9.568;2023-10-09T05:19:21;4.37;;;2.10;;
6282;SDS011;3174;53.486;9.568;2023-10-09T05:22:21;2.83;;;1.40;;
6282;SDS011;3174;53.486;9.568;2023-10-09T05:25:03;3.23;;;2.00;;
6282;SDS011;3174;53.486;9.568;2023-10-09T05:27:43;4.10;;;1.90;;
6282;SDS011;3174;53.486;9.568;2023-10-09T05:30:17;2.43;;;1.60;;
6282;SDS011;3174;53.486;9.568;2023-10-09T05:32:59;3.70;;;1.80;;
6282;SDS011;3174;53.486;9.568;2023-10-09T05:35:52;3.67;;;2.23;;
6282;SDS011;3174;53.486;9.568;2023-10-09T05:38:32;4.57;;;1.50;;
6282;SDS011;3174;53.486;9.568;2023-10-09T05:41:10;2.23;;;1.67;;
6282;SDS011;3174;53.486;9.568;2023-10-09T05:43:52;3.60;;;1.43;;
6282;SDS011;3174;53.486;9.568;2023-10-09T05:46:37;3.17;;;1.60;;
6282;SDS011;3174;53.486;9.568;2023-10-09T05:49:17;5.43;;;2.33;;
6282;SDS011;3174;53.486;9.568;2023-10-09T05:51:46;5.77;;;2.57;;
6282;SDS011;3174;53.486;9.568;2023-10-09T05:54:19;3.30;;;1.90;;
6282;SDS011;3174;53.486;9.568;2023-10-09T05:57:19;5.43;;;1.83;;
6282;SDS011;3174;53.486;9.568;2023-10-09T06:00:01;4.63;;;1.87;;
6282;SDS011;3174;53.486;9.568;2023-10-09T06:02:46;3.70;;;1.80;;
6282;SDS011;3174;53.486;9.568;2023-10-09T06:05:33;4.23;;;1.80;;
6282;SDS011;3174;53.486;9.568;2023-10-09T06:08:29;2.90;;;1.27;;
6282;SDS011;3174;53.486;9.568;2023-10-09T06:11:12;2.77;;;1.63;;
6282;SDS011;3174;53.486;9.568;2023-10-09T06:13:54;2.10;;;1.70;;
6282;SDS011;3174;53.486;9.568;2023-10-09T06:16:40;2.17;;;1.50;;
6282;SDS011;3174;53.486;9.568;2023-10-09T06:19:08;3.20;;;1.80;;
6282;SDS011;3174;53.486;9.568;2023-10-09T06:21:41;3.83;;;1.67;;
6282;SDS011;3174;53.486;9.568;2023-10-09T06:24:27;2.80;;;2.00;;
6282;SDS011;3174;53.486;9.568;2023-10-09T06:27:08;5.37;;;2.23;;
6282;SDS011;3174;53.486;9.568;2023-10-09T06:29:53;5.93;;;1.70;;
6282;SDS011;3174;53.486;9.568;2023-10-09T06:32:35;5.20;;;1.93;;
6282;SDS011;3174;53.486;9.568;2023-10-09T06:35:04;2.60;;;1.67;;
6282;SDS011;3174;53.486;9.568;2023-10-09T06:37:47;5.07;;;2.20;;
6282;SDS011;3174;53.486;9.568;2023-10-09T06:40:34;3.53;;;1.57;;
6282;SDS011;3174;53.486;9.568;2023-10-09T06:43:21;1.90;;;1.30;;
6282;SDS011;3174;53.486;9.568;2023-10-09T06:45:56;5.17;;;1.90;;
6282;SDS011;3174;53.486;9.568;2023-10-09T06:48:41;1.90;;;1.30;;
6282;SDS011;3174;53.486;9.568;2023-10-09T06:51:12;4.43;;;1.80;;
6282;SDS011;3174;53.486;9.568;2023-10-09T06:53:50;3.70;;;1.80;;
6282;SDS011;3174;53.486;9.568;2023-10-09T06:56:32;3.30;;;1.90;;
6282;SDS011;3174;53.486;9.568;2023-10-09T06:59:14;1.80;;;1.43;;
6282;SDS011;3174;53.486;9.568;2023-10-09T07:01:47;3.73;;;1.60;;
6282;SDS011;3174;53.486;9.568;2023-10-09T07:04:37;1.83;;;1.30;;
6282;SDS011;3174;53.486;9.568;2023-10-09T07:07:14;4.03;;;2.00;;
6282;SDS011;3174;53.486;9.568;2023-10-09T07:09:48;4.37;;;1.70;;
6282;SDS011;3174;53.486;9.568;2023-10-09T07:12:31;2.33;;;1.27;;
6282;SDS011;3174;53.486;9.568;2023-10-09T07:15:00;2.67;;;1.30;;
6282;SDS011;3174;53.486;9.568;2023-10-09T07:17:45;3.50;;;1.80;;
6282;SDS011;3174;53.486;9.568;2023-10-09T07:20:13;3.70;;;1.67;;
6282;SDS011;3174;53.486;9.568;2023-10-09T07:22:42;3.33;;;1.50;;
6282;SDS011;3174;53.486;9.568;2023-10-09T07:25:28;2.10;;;1.40;;
6282;SDS011;3174;53.486;9.568;2023-10-09T07:28:08;3.93;;;1.83;;
6282;SDS011;3174;53.486;9.568;2023-10-09T07:30:56;1.73;;;1.23;;
6282;SDS011;3174;53.486;9.568;2023-10-09T07:33:27;2.77;;;1.30;;
6282;SDS011;3174;53.486;9.568;2023-10-09T07:36:29;2.87;;;1.70;;
6282;SDS011;3174;53.486;9.568;2023-10-09T07:39:05;2.97;;;1.47;;
6282;SDS011;3174;53.486;9.568;2023-10-09T07:41:42;3.83;;;1.83;;
6282;SDS011;3174;53.486;9.568;2023-10-09T07:44:23;3.10;;;1.90;;
6282;SDS011;3174;53.486;9.568;2023-10-09T07:47:04;1.67;;;1.53;;
6282;SDS011;3174;53.486;9.568;2023-10-09T07:49:45;3.37;;;1.97;;
6282;SDS011;3174;53.486;9.568;2023-10-09T07:52:20;2.83;;;1.70;;
6282;SDS011;3174;53.486;9.568;2023-10-09T07:54:52;3.03;;;1.70;;
6282;SDS011;3174;53.486;9.568;2023-10-09T07:57:28;2.13;;;1.37;;
6282;SDS011;3174;53.486;9.568;2023-10-09T08:00:06;2.70;;;1.77;;
6282;SDS011;3174;53.486;9.568;2023-10-09T08:02:54;1.30;;;1.20;;
6282;SDS011;3174;53.486;9.568;2023-10-09T08:05:27;2.00;;;1.37;;
6282;SDS011;3174;53.486;9.568;2023-10-09T08:08:02;1.20;;;1.07;;
6282;SDS011;3174;53.486;9.568;2023-10-09T08:11:08;2.17;;;1.47;;
6282;SDS011;3174;53.486;9.568;2023-10-09T08:13:54;1.40;;;1.13;;
6282;SDS011;3174;53.486;9.568;2023-10-09T08:16:27;2.10;;;1.73;;
6282;SDS011;3174;53.486;9.568;2023-10-09T08:19:03;3.90;;;1.50;;
6282;SDS011;3174;53.486;9.568;2023-10-09T08:21:55;1.77;;;1.30;;
6282;SDS011;3174;53.486;9.568;2023-10-09T08:25:04;2.23;;;1.60;;
6282;SDS011;3174;53.486;9.568;2023-10-09T08:27:34;1.60;;;1.40;;
6282;SDS011;3174;53.486;9.568;2023-10-09T08:30:21;2.07;;;1.67;;
6282;SDS011;3174;53.486;9.568;2023-10-09T08:33:07;2.80;;;1.40;;
6282;SDS011;3174;53.486;9.568;2023-10-09T08:35:55;2.27;;;1.80;;
6282;SDS011;3174;53.486;9.568;2023-10-09T08:38:31;2.23;;;1.73;;
6282;SDS011;3174;53.486;9.568;2023-10-09T08:41:09;3.43;;;1.77;;
6282;SDS011;3174;53.486;9.568;2023-10-09T08:43:50;2.27;;;1.70;;
6282;SDS011;3174;53.486;9.568;2023-10-09T08:46:19;3.97;;;1.63;;
6282;SDS011;3174;53.486;9.568;2023-10-09T08:48:48;2.90;;;1.70;;
6282;SDS011;3174;53.486;9.568;2023-10-09T08:51:17;2.50;;;1.63;;
6282;SDS011;3174;53.486;9.568;2023-10-09T08:53:46;2.17;;;1.90;;
6282;SDS011;3174;53.486;9.568;2023-10-09T08:56:16;3.10;;;2.00;;
6282;SDS011;3174;53.486;9.568;2023-10-09T08:58:52;1.73;;;1.40;;
6282;SDS011;3174;53.486;9.568;2023-10-09T09:01:22;4.13;;;2.03;;
6282;SDS011;3174;53.486;9.568;2023-10-09T09:03:52;3.37;;;2.20;;
6282;SDS011;3174;53.486;9.568;2023-10-09T09:06:22;5.23;;;2.53;;
6282;SDS011;3174;53.486;9.568;2023-10-09T09:08:50;3.93;;;2.00;;
6282;SDS011;3174;53.486;9.568;2023-10-09T09:11:23;3.37;;;2.10;;
6282;SDS011;3174;53.486;9.568;2023-10-09T09:14:00;5.67;;;2.17;;
6282;SDS011;3174;53.486;9.568;2023-10-09T09:16:31;2.30;;;1.97;;
6282;SDS011;3174;53.486;9.568;2023-10-09T09:19:02;2.63;;;1.90;;
6282;SDS011;3174;53.486;9.568;2023-10-09T09:21:48;2.47;;;1.70;;
6282;SDS011;3174;53.486;9.568;2023-10-09T09:24:21;2.90;;;2.30;;
6282;SDS011;3174;53.486;9.568;2023-10-09T09:27:04;3.33;;;2.60;;
6282;SDS011;3174;53.486;9.568;2023-10-09T09:29:44;2.50;;;1.90;;
6282;SDS011;3174;53.486;9.568;2023-10-09T09:32:28;3.63;;;2.30;;
6282;SDS011;3174;53.486;9.568;2023-10-09T09:35:03;2.03;;;1.63;;
6282;SDS011;3174;53.486;9.568;2023-10-09T09:37:32;2.77;;;2.20;;
6282;SDS011;3174;53.486;9.568;2023-10-09T09:40:17;1.53;;;1.40;;
6282;SDS011;3174;53.486;9.568;2023-10-09T09:43:02;2.80;;;1.60;;
6282;SDS011;3174;53.486;9.568;2023-10-09T09:45:34;1.70;;;1.30;;
6282;SDS011;3174;53.486;9.568;2023-10-09T09:48:03;3.43;;;2.80;;
6282;SDS011;3174;53.486;9.568;2023-10-09T09:50:33;2.13;;;1.40;;
6282;SDS011;3174;53.486;9.568;2023-10-09T09:53:05;5.07;;;2.63;;
6282;SDS011;3174;53.486;9.568;2023-10-09T09:55:37;3.40;;;2.20;;
6282;SDS011;3174;53.486;9.568;2023-10-09T09:58:11;4.00;;;2.90;;
6282;SDS011;3174;53.486;9.568;2023-10-09T10:00:45;4.60;;;3.07;;
6282;SDS011;3174;53.486;9.568;2023-10-09T10:03:19;4.40;;;2.80;;
6282;SDS011;3174;53.486;9.568;2023-10-09T10:05:50;2.00;;;1.47;;
6282;SDS011;3174;53.486;9.568;2023-10-09T10:08:22;4.83;;;2.23;;
6282;SDS011;3174;53.486;9.568;2023-10-09T10:10:58;2.13;;;1.50;;
6282;SDS011;3174;53.486;9.568;2023-10-09T10:16:28;2.77;;;2.30;;
6282;SDS011;3174;53.486;9.568;2023-10-09T10:19:01;3.50;;;2.13;;
6282;SDS011;3174;53.486;9.568;2023-10-09T10:21:48;3.83;;;2.80;;
6282;SDS011;3174;53.486;9.568;2023-10-09T10:27:25;3.37;;;2.23;;
6282;SDS011;3174;53.486;9.568;2023-10-09T10:33:03;4.37;;;2.83;;
6282;SDS011;3174;53.486;9.568;2023-10-09T10:35:42;4.90;;;3.27;;
6282;SDS011;3174;53.486;9.568;2023-10-09T10:38:26;5.63;;;3.20;;
6282;SDS011;3174;53.486;9.568;2023-10-09T10:43:49;5.30;;;3.00;;
6282;SDS011;3174;53.486;9.568;2023-10-09T10:46:48;7.13;;;3.73;;
6282;SDS011;3174;53.486;9.568;2023-10-09T10:49:19;3.90;;;2.83;;
6282;SDS011;3174;53.486;9.568;2023-10-09T10:51:52;6.33;;;4.10;;
6282;SDS011;3174;53.486;9.568;2023-10-09T10:54:28;7.47;;;4.27;;
6282;SDS011;3174;53.486;9.568;2023-10-09T10:57:35;5.20;;;3.77;;
6282;SDS011;3174;53.486;9.568;2023-10-09T11:00:20;9.37;;;4.17;;
6282;SDS011;3174;53.486;9.568;2023-10-09T11:03:07;7.73;;;4.70;;
6282;SDS011;3174;53.486;9.568;2023-10-09T11:05:44;6.47;;;4.20;;
6282;SDS011;3174;53.486;9.568;2023-10-09T11:08:18;6.03;;;3.63;;
6282;SDS011;3174;53.486;9.568;2023-10-09T11:10:50;10.47;;;4.63;;
6282;SDS011;3174;53.486;9.568;2023-10-09T11:13:20;3.30;;;2.03;;
6282;SDS011;3174;53.486;9.568;2023-10-09T11:15:59;3.10;;;2.20;;
6282;SDS011;3174;53.486;9.568;2023-10-09T11:18:57;6.83;;;4.30;;
6282;SDS011;3174;53.486;9.568;2023-10-09T11:21:30;2.87;;;1.70;;
6282;SDS011;3174;53.486;9.568;2023-10-09T11:23:58;4.20;;;1.90;;
6282;SDS011;3174;53.486;9.568;2023-10-09T11:26:47;4.33;;;2.87;;
6282;SDS011;3174;53.486;9.568;2023-10-09T11:29:21;4.37;;;2.50;;
6282;SDS011;3174;53.486;9.568;2023-10-09T11:32:19;9.63;;;4.47;;
6282;SDS011;3174;53.486;9.568;2023-10-09T11:34:50;6.13;;;4.37;;
6282;SDS011;3174;53.486;9.568;2023-10-09T11:37:19;4.10;;;2.63;;
6282;SDS011;3174;53.486;9.568;2023-10-09T11:39:58;9.03;;;5.17;;
6282;SDS011;3174;53.486;9.568;2023-10-09T11:42:28;7.87;;;3.87;;
6282;SDS011;3174;53.486;9.568;2023-10-09T11:45:02;7.40;;;4.43;;
6282;SDS011;3174;53.486;9.568;2023-10-09T11:47:46;3.70;;;2.13;;
6282;SDS011;3174;53.486;9.568;2023-10-09T11:50:40;7.37;;;4.77;;
6282;SDS011;3174;53.486;9.568;2023-10-09T11:53:10;7.97;;;6.30;;
6282;SDS011;3174;53.486;9.568;2023-10-09T11:55:59;12.33;;;9.50;;
6282;SDS011;3174;53.486;9.568;2023-10-09T11:58:29;7.67;;;4.77;;
6282;SDS011;3174;53.486;9.568;2023-10-09T12:00:58;12.93;;;9.07;;
6282;SDS011;3174;53.486;9.568;2023-10-09T12:03:32;11.33;;;5.70;;
6282;SDS011;3174;53.486;9.568;2023-10-09T12:06:02;8.10;;;5.43;;
6282;SDS011;3174;53.486;9.568;2023-10-09T12:08:32;7.03;;;5.03;;
6282;SDS011;3174;53.486;9.568;2023-10-09T12:11:01;8.97;;;5.13;;
6282;SDS011;3174;53.486;9.568;2023-10-09T12:13:30;11.20;;;6.17;;
6282;SDS011;3174;53.486;9.568;2023-10-09T12:15:58;10.77;;;6.17;;
6282;SDS011;3174;53.486;9.568;2023-10-09T12:18:27;8.60;;;5.00;;
6282;SDS011;3174;53.486;9.568;2023-10-09T12:20:55;19.57;;;11.43;;
6282;SDS011;3174;53.486;9.568;2023-10-09T12:23:30;9.40;;;6.20;;
6282;SDS011;3174;53.486;9.568;2023-10-09T12:26:02;9.60;;;5.87;;
6282;SDS011;3174;53.486;9.568;2023-10-09T12:28:30;6.43;;;3.30;;
6282;SDS011;3174;53.486;9.568;2023-10-09T12:30:59;5.80;;;3.33;;
6282;SDS011;3174;53.486;9.568;2023-10-09T12:33:28;3.63;;;2.80;;
6282;SDS011;3174;53.486;9.568;2023-10-09T12:35:57;4.63;;;2.97;;
6282;SDS011;3174;53.486;9.568;2023-10-09T12:38:27;6.07;;;2.97;;
6282;SDS011;3174;53.486;9.568;2023-10-09T12:41:04;4.77;;;2.73;;
6282;SDS011;3174;53.486;9.568;2023-10-09T12:43:46;5.50;;;2.53;;
6282;SDS011;3174;53.486;9.568;2023-10-09T12:46:14;6.30;;;2.77;;
6282;SDS011;3174;53.486;9.568;2023-10-09T12:48:43;3.87;;;2.30;;
6282;SDS011;3174;53.486;9.568;2023-10-09T12:51:12;3.70;;;2.50;;
6282;SDS011;3174;53.486;9.568;2023-10-09T12:53:43;6.47;;;3.00;;
6282;SDS011;3174;53.486;9.568;2023-10-09T12:56:13;2.30;;;1.53;;
6282;SDS011;3174;53.486;9.568;2023-10-09T12:58:42;2.93;;;2.20;;
6282;SDS011;3174;53.486;9.568;2023-10-09T13:01:19;3.23;;;2.20;;
6282;SDS011;3174;53.486;9.568;2023-10-09T13:03:47;1.93;;;1.70;;
6282;SDS011;3174;53.486;9.568;2023-10-09T13:06:16;2.77;;;1.60;;
6282;SDS011;3174;53.486;9.568;2023-10-09T13:08:51;3.53;;;1.63;;
6282;SDS011;3174;53.486;9.568;2023-10-09T13:11:20;4.17;;;2.40;;
6282;SDS011;3174;53.486;9.568;2023-10-09T13:13:52;5.37;;;2.37;;
6282;SDS011;3174;53.486;9.568;2023-10-09T13:16:20;3.37;;;2.23;;
6282;SDS011;3174;53.486;9.568;2023-10-09T13:18:50;4.23;;;2.00;;
6282;SDS011;3174;53.486;9.568;2023-10-09T13:21:19;2.30;;;1.70;;
6282;SDS011;3174;53.486;9.568;2023-10-09T13:23:48;2.80;;;1.80;;
6282;SDS011;3174;53.486;9.568;2023-10-09T13:26:17;2.37;;;1.70;;
6282;SDS011;3174;53.486;9.568;2023-10-09T13:28:59;3.00;;;1.60;;
6282;SDS011;3174;53.486;9.568;2023-10-09T13:31:28;3.63;;;1.50;;
6282;SDS011;3174;53.486;9.568;2023-10-09T13:33:59;2.00;;;1.70;;
6282;SDS011;3174;53.486;9.568;2023-10-09T13:36:33;1.77;;;1.30;;
6282;SDS011;3174;53.486;9.568;2023-10-09T13:39:02;2.37;;;1.30;;
6282;SDS011;3174;53.486;9.568;2023-10-09T13:41:49;3.23;;;1.67;;
6282;SDS011;3174;53.486;9.568;2023-10-09T13:44:26;3.57;;;1.50;;
6282;SDS011;3174;53.486;9.568;2023-10-09T13:46:54;9.03;;;1.80;;
6282;SDS011;3174;53.486;9.568;2023-10-09T13:49:23;3.97;;;1.60;;
6282;SDS011;3174;53.486;9.568;2023-10-09T13:51:57;3.70;;;1.77;;
6282;SDS011;3174;53.486;9.568;2023-10-09T13:54:26;3.10;;;1.57;;
6282;SDS011;3174;53.486;9.568;2023-10-09T13:57:06;3.23;;;1.50;;
6282;SDS011;3174;53.486;9.568;2023-10-09T13:59:38;3.80;;;1.37;;
6282;SDS011;3174;53.486;9.568;2023-10-09T14:02:15;2.63;;;1.00;;
6282;SDS011;3174;53.486;9.568;2023-10-09T14:04:47;3.03;;;1.80;;
6282;SDS011;3174;53.486;9.568;2023-10-09T14:07:16;1.50;;;1.33;;
6282;SDS011;3174;53.486;9.568;2023-10-09T14:09:47;2.47;;;1.70;;
6282;SDS011;3174;53.486;9.568;2023-10-09T14:12:34;2.60;;;2.07;;
6282;SDS011;3174;53.486;9.568;2023-10-09T14:15:08;4.97;;;2.10;;
6282;SDS011;3174;53.486;9.568;2023-10-09T14:17:43;1.27;;;1.17;;
6282;SDS011;3174;53.486;9.568;2023-10-09T14:20:13;2.30;;;1.40;;
6282;SDS011;3174;53.486;9.568;2023-10-09T14:22:58;1.97;;;1.27;;
6282;SDS011;3174;53.486;9.568;2023-10-09T14:25:33;3.00;;;1.33;;
6282;SDS011;3174;53.486;9.568;2023-10-09T14:28:04;4.37;;;1.37;;
6282;SDS011;3174;53.486;9.568;2023-10-09T14:30:35;3.43;;;1.33;;
6282;SDS011;3174;53.486;9.568;2023-10-09T14:33:09;2.47;;;1.40;;
6282;SDS011;3174;53.486;9.568;2023-10-09T14:35:40;4.43;;;1.27;;
6282;SDS011;3174;53.486;9.568;2023-10-09T14:38:08;1.60;;;1.20;;
6282;SDS011;3174;53.486;9.568;2023-10-09T14:40:42;2.17;;;1.07;;
6282;SDS011;3174;53.486;9.568;2023-10-09T14:43:11;3.07;;;1.50;;
6282;SDS011;3174;53.486;9.568;2023-10-09T14:45:46;3.57;;;1.40;;
6282;SDS011;3174;53.486;9.568;2023-10-09T14:48:16;3.30;;;1.73;;
6282;SDS011;3174;53.486;9.568;2023-10-09T14:50:47;3.90;;;1.50;;
6282;SDS011;3174;53.486;9.568;2023-10-09T14:53:18;2.47;;;1.20;;
6282;SDS011;3174;53.486;9.568;2023-10-09T14:55:53;3.57;;;1.27;;
6282;SDS011;3174;53.486;9.568;2023-10-09T14:58:21;1.40;;;1.10;;
6282;SDS011;3174;53.486;9.568;2023-10-09T15:00:52;3.47;;;1.33;;
6282;SDS011;3174;53.486;9.568;2023-10-09T15:03:20;2.60;;;1.20;;
6282;SDS011;3174;53.486;9.568;2023-10-09T15:05:49;2.07;;;1.20;;
6282;SDS011;3174;53.486;9.568;2023-10-09T15:08:17;4.53;;;1.40;;
6282;SDS011;3174;53.486;9.568;2023-10-09T15:10:45;4.57;;;1.23;;
6282;SDS011;3174;53.486;9.568;2023-10-09T15:13:15;1.47;;;0.87;;
6282;SDS011;3174;53.486;9.568;2023-10-09T15:15:43;4.70;;;1.60;;
6282;SDS011;3174;53.486;9.568;2023-10-09T15:18:13;1.83;;;1.00;;
6282;SDS011;3174;53.486;9.568;2023-10-09T15:20:41;2.40;;;1.07;;
6282;SDS011;3174;53.486;9.568;2023-10-09T15:23:09;2.83;;;1.00;;
6282;SDS011;3174;53.486;9.568;2023-10-09T15:25:37;3.57;;;1.20;;
6282;SDS011;3174;53.486;9.568;2023-10-09T15:28:08;4.10;;;0.90;;
6282;SDS011;3174;53.486;9.568;2023-10-09T15:30:36;4.67;;;2.67;;
6282;SDS011;3174;53.486;9.568;2023-10-09T15:33:05;1.77;;;1.20;;
6282;SDS011;3174;53.486;9.568;2023-10-09T15:35:35;7.67;;;1.53;;
6282;SDS011;3174;53.486;9.568;2023-10-09T15:38:03;2.47;;;0.90;;
6282;SDS011;3174;53.486;9.568;2023-10-09T15:40:32;4.87;;;1.53;;
6282;SDS011;3174;53.486;9.568;2023-10-09T15:43:03;6.10;;;2.17;;
6282;SDS011;3174;53.486;9.568;2023-10-09T15:45:31;3.57;;;1.70;;
6282;SDS011;3174;53.486;9.568;2023-10-09T15:48:00;2.47;;;1.40;;
6282;SDS011;3174;53.486;9.568;2023-10-09T15:50:31;3.57;;;1.80;;
6282;SDS011;3174;53.486;9.568;2023-10-09T15:53:02;9.30;;;4.57;;
6282;SDS011;3174;53.486;9.568;2023-10-09T15:55:33;4.97;;;2.50;;
6282;SDS011;3174;53.486;9.568;2023-10-09T15:58:03;4.10;;;2.13;;
6282;SDS011;3174;53.486;9.568;2023-10-09T16:00:35;4.17;;;2.30;;
6282;SDS011;3174;53.486;9.568;2023-10-09T16:03:04;3.47;;;1.50;;
6282;SDS011;3174;53.486;9.568;2023-10-09T16:05:36;3.63;;;1.80;;
6282;SDS011;3174;53.486;9.568;2023-10-09T16:08:07;3.97;;;3.57;;
6282;SDS011;3174;53.486;9.568;2023-10-09T16:10:36;3.70;;;1.70;;
6282;SDS011;3174;53.486;9.568;2023-10-09T16:13:04;3.47;;;1.97;;
6282;SDS011;3174;53.486;9.568;2023-10-09T16:15:40;1.57;;;1.47;;
6282;SDS011;3174;53.486;9.568;2023-10-09T16:18:09;2.77;;;1.30;;